Time;durP1;ratioP1;P1;durP2;ratioP2;P2;SDS_P1;SDS_P2;PMS_P1;PMS_P2;Temp;Humidity;BMP_temperature;BMP_pressure;BME280_temperature;BME280_humidity;BME280_pressure;Samples;Min_cycle;Max_cycle;Signal;HPM_P1;HPM_P2
2024/01/19 00:00:01;;;;;;;;;5.00;5.00;;;;;18.84;45.48;99768.65;34563;1252;20013;-68
2024/01/19 00:00:50;;;;;;;;;5.00;4.67;;;;;18.84;45.56;99768.00;34597;1268;18675;-68
2024/01/19 00:01:57;;;;;;;;;4.50;4.50;;;;;18.84;45.53;99768.87;34537;1268;21326;-68
2024/01/19 00:02:44;;;;;;;;;4.00;4.00;;;;;18.84;45.50;99769.85;34575;1252;20127;-69
2024/01/19 00:03:32;;;;;;;;;5.00;5.00;;;;;18.83;45.40;99772.67;34542;1252;21109;-68
2024/01/19 00:04:19;;;;;;;;;7.00;5.00;;;;;18.82;45.48;99771.91;34526;1253;20051;-68
2024/01/19 00:05:07;;;;;;;;;7.00;7.00;;;;;18.83;45.57;99771.54;34553;1268;18665;-68
2024/01/19 00:05:54;;;;;;;;;5.00;5.00;;;;;18.83;45.58;99779.13;34538;1252;20116;-68
2024/01/19 00:06:42;;;;;;;;;4.00;4.00;;;;;18.83;45.49;99774.41;34561;1253;18651;-67
2024/01/19 00:07:29;;;;;;;;;4.00;4.00;;;;;18.83;45.41;99778.98;34545;1268;18612;-68
2024/01/19 00:08:16;;;;;;;;;6.00;6.00;;;;;18.82;45.28;99779.23;34561;1261;18542;-67
2024/01/19 00:09:05;;;;;;;;;5.67;5.67;;;;;18.82;45.52;99780.82;34556;1252;18624;-67
2024/01/19 00:09:52;;;;;;;;;4.00;4.00;;;;;18.81;45.49;99782.94;34535;1268;18633;-68
2024/01/19 00:10:40;;;;;;;;;5.00;5.00;;;;;18.81;45.39;99787.33;34575;1268;20084;-67
2024/01/19 00:11:27;;;;;;;;;5.00;5.00;;;;;18.80;45.48;99781.86;34550;1268;20140;-68
2024/01/19 00:12:15;;;;;;;;;;;;;;;18.81;45.17;99784.68;34533;1268;19995;-67
2024/01/19 00:13:02;;;;;;;;;7.00;5.00;;;;;18.82;44.98;99787.27;34527;1268;19554;-67
2024/01/19 00:13:50;;;;;;;;;4.00;4.00;;;;;18.84;44.73;99784.83;34608;1252;19994;-67
2024/01/19 00:14:37;;;;;;;;;5.00;5.00;;;;;18.87;44.59;99786.38;34537;1268;19946;-68
2024/01/19 00:15:25;;;;;;;;;5.00;5.00;;;;;18.91;44.41;99792.38;34551;1268;19943;-67
2024/01/19 00:16:12;;;;;;;;;7.00;7.00;;;;;18.94;44.24;99790.63;34540;1268;19876;-67
2024/01/19 00:16:59;;;;;;;;;8.00;7.00;;;;;18.95;44.07;99786.38;34532;1268;18655;-67
2024/01/19 00:17:47;;;;;;;;;7.00;5.00;;;;;18.97;44.11;99786.42;34559;1268;20018;-70
2024/01/19 00:18:34;;;;;;;;;8.00;7.00;;;;;18.98;43.92;99788.14;34536;1253;20135;-67
2024/01/19 00:19:22;;;;;;;;;7.00;5.00;;;;;19.00;44.06;99790.31;34569;1268;18694;-68
2024/01/19 00:20:09;;;;;;;;;7.00;5.00;;;;;19.03;43.80;99788.73;34547;1268;21153;-68
2024/01/19 00:20:57;;;;;;;;;5.00;5.00;;;;;19.05;43.69;99791.80;34573;1253;20046;-68
2024/01/19 00:21:44;;;;;;;;;4.00;4.00;;;;;19.06;43.78;99794.02;34564;1268;20301;-68
2024/01/19 00:22:32;;;;;;;;;5.00;4.00;;;;;19.06;43.60;99793.58;34580;1268;20451;-68
2024/01/19 00:23:19;;;;;;;;;5.00;5.00;;;;;19.06;43.60;99796.62;34529;1268;19868;-68
2024/01/19 00:24:07;;;;;;;;;9.33;7.00;;;;;19.06;43.60;99798.57;34563;1268;18571;-67
2024/01/19 00:24:55;;;;;;;;;5.00;5.00;;;;;19.06;43.53;99799.12;34614;1260;18693;-68
2024/01/19 00:25:42;;;;;;;;;7.00;7.00;;;;;19.07;43.56;99801.94;34544;1268;19949;-68
2024/01/19 00:26:30;;;;;;;;;7.00;7.00;;;;;19.07;43.50;99806.92;34533;1260;18932;-67
2024/01/19 00:27:17;;;;;;;;;4.00;4.00;;;;;19.07;43.52;99810.79;34552;1268;19940;-68
2024/01/19 00:28:05;;;;;;;;;7.00;6.00;;;;;19.08;43.39;99808.48;34535;1268;18693;-68
2024/01/19 00:28:52;;;;;;;;;7.00;6.00;;;;;19.07;43.40;99816.10;34571;1268;18819;-68
2024/01/19 00:29:41;;;;;;;;;5.00;5.00;;;;;19.07;43.41;99817.19;34532;1253;20076;-68
2024/01/19 00:30:28;;;;;;;;;5.00;5.00;;;;;19.08;43.61;99821.64;34532;1252;20738;-68
2024/01/19 00:31:16;;;;;;;;;8.00;7.00;;;;;19.06;43.46;99826.36;34611;1252;20039;-68
2024/01/19 00:32:03;;;;;;;;;7.00;7.00;;;;;19.07;43.54;99828.59;34538;1260;19868;-68
2024/01/19 00:32:51;;;;;;;;;4.00;4.00;;;;;19.07;43.49;99828.15;34621;1252;21211;-68
2024/01/19 00:33:38;;;;;;;;;5.00;5.00;;;;;19.05;43.62;99829.63;34519;1268;18718;-69
2024/01/19 00:34:25;;;;;;;;;6.50;6.00;;;;;19.04;43.44;99828.02;34646;1253;20209;-68
2024/01/19 00:35:13;;;;;;;;;5.00;5.00;;;;;19.02;43.24;99829.70;34530;1268;20002;-68
2024/01/19 00:36:00;;;;;;;;;7.67;7.33;;;;;19.02;43.38;99828.13;34624;1252;20387;-68
2024/01/19 00:36:48;;;;;;;;;4.00;4.00;;;;;19.01;43.22;99829.60;34532;1268;19942;-68
2024/01/19 00:37:35;;;;;;;;;485.00;485.00;;;;;19.00;43.40;99829.45;34624;1253;20089;-68
2024/01/19 00:38:23;;;;;;;;;4.00;4.00;;;;;18.98;43.32;99829.08;34541;1268;18856;-68
2024/01/19 00:39:10;;;;;;;;;7.00;7.00;;;;;18.99;43.47;99832.23;34568;1268;20173;-68
2024/01/19 00:39:58;;;;;;;;;7.00;5.00;;;;;18.99;43.46;99832.87;34531;1268;19875;-68
2024/01/19 00:40:45;;;;;;;;;5.00;5.00;;;;;18.98;43.33;99833.85;34519;1268;19964;-68
2024/01/19 00:41:33;;;;;;;;;4.00;4.00;;;;;18.97;43.37;99830.98;34533;1268;20248;-68
2024/01/19 00:42:20;;;;;;;;;7.00;5.00;;;;;18.96;43.33;99833.43;34532;1253;20169;-68
2024/01/19 00:43:08;;;;;;;;;5.00;4.00;;;;;18.96;43.43;99835.83;34542;1268;19938;-68
2024/01/19 00:43:55;;;;;;;;;5.00;4.00;;;;;18.95;43.35;99835.06;34623;1268;18601;-68
2024/01/19 00:44:43;;;;;;;;;5.00;4.50;;;;;18.94;43.62;99833.17;34529;1268;18623;-68
2024/01/19 00:45:30;;;;;;;;;6.00;5.00;;;;;18.94;43.47;99835.34;34647;1252;19658;-68
2024/01/19 00:46:18;;;;;;;;;4.33;4.33;;;;;18.94;43.50;99837.40;34531;1268;19945;-68
2024/01/19 00:47:05;;;;;;;;;5.00;4.00;;;;;18.93;43.41;99837.41;34525;1268;20029;-68
2024/01/19 00:47:53;;;;;;;;;;;;;;;18.93;43.34;99835.13;34546;1268;19900;-68
2024/01/19 00:48:40;;;;;;;;;4.00;4.00;;;;;18.92;43.50;99834.44;34534;1268;19570;-67
2024/01/19 00:49:28;;;;;;;;;4.00;4.00;;;;;18.90;43.55;99836.12;34532;1268;19961;-66
2024/01/19 00:50:15;;;;;;;;;5.00;5.00;;;;;18.89;43.48;99833.36;34537;1253;20411;-66
2024/01/19 00:51:03;;;;;;;;;5.00;4.00;;;;;18.88;43.75;99832.61;34556;1268;18708;-66
2024/01/19 00:51:50;;;;;;;;;7.00;5.00;;;;;18.86;43.80;99833.21;34528;1268;18632;-66
2024/01/19 00:52:37;;;;;;;;;5.00;5.00;;;;;18.86;44.06;99833.86;34550;1268;21057;-68
2024/01/19 00:53:25;;;;;;;;;5.00;5.00;;;;;18.86;44.05;99835.88;34519;1268;19922;-67
2024/01/19 00:54:12;;;;;;;;;5.00;5.00;;;;;18.86;44.28;99837.19;34497;1269;18641;-68
2024/01/19 00:55:00;;;;;;;;;5.00;5.00;;;;;18.87;44.23;99839.89;34410;1269;20251;-67
2024/01/19 00:55:47;;;;;;;;;4.00;4.00;;;;;18.88;44.13;99838.09;34477;1269;18526;-67
2024/01/19 00:56:35;;;;;;;;;5.00;5.00;;;;;18.86;44.13;99839.02;34420;1269;20246;-67
2024/01/19 00:57:22;;;;;;;;;4.00;4.00;;;;;18.86;44.21;99839.83;34474;1269;20176;-67
2024/01/19 00:58:10;;;;;;;;;2.67;2.67;;;;;18.86;44.47;99843.95;34420;1269;20118;-67
2024/01/19 00:58:57;;;;;;;;;5.00;4.00;;;;;18.86;44.21;99840.27;34449;1269;18595;-67
2024/01/19 00:59:45;;;;;;;;;5.00;4.00;;;;;18.86;44.24;99846.84;34416;1269;19987;-67
2024/01/19 01:00:32;;;;;;;;;5.00;5.00;;;;;18.85;44.39;99848.80;34475;1253;20128;-67
2024/01/19 01:01:20;;;;;;;;;5.00;5.00;;;;;18.85;44.61;99844.13;34434;1269;20295;-67
2024/01/19 01:02:07;;;;;;;;;4.00;2.67;;;;;18.85;44.78;99845.27;34479;1269;18647;-68
2024/01/19 01:02:57;;;;;;;;;4.50;4.50;;;;;18.84;44.55;99848.80;34438;1269;18606;-67
2024/01/19 01:03:44;;;;;;;;;3.00;3.00;;;;;18.84;44.80;99848.69;34479;1253;18523;-67
2024/01/19 01:04:31;;;;;;;;;8.00;5.00;;;;;18.83;44.71;99854.06;34510;1253;20021;-67
2024/01/19 01:05:19;;;;;;;;;7.00;5.00;;;;;18.83;44.96;99851.02;34470;1269;18613;-67
2024/01/19 01:06:06;;;;;;;;;4.00;4.00;;;;;18.82;44.54;99853.36;34506;1254;20187;-66
2024/01/19 01:06:54;;;;;;;;;2.00;2.00;;;;;18.83;44.59;99855.27;34482;1269;20005;-66
2024/01/19 01:07:41;;;;;;;;;4.00;4.00;;;;;18.83;44.80;99851.85;34499;1269;18709;-67
2024/01/19 01:08:29;;;;;;;;;5.00;5.00;;;;;18.82;44.60;99851.58;34470;1261;21179;-66
2024/01/19 01:09:16;;;;;;;;;5.00;5.00;;;;;18.82;44.79;99855.76;34532;1269;18649;-67
2024/01/19 01:10:03;;;;;;;;;5.00;4.00;;;;;18.81;44.65;99856.79;34464;1269;18624;-67
2024/01/19 01:10:51;;;;;;;;;;;;;;;18.81;44.58;99858.86;34418;1269;19981;-67
2024/01/19 01:11:38;;;;;;;;;5.00;4.00;;;;;18.81;44.63;99862.97;34435;1269;19505;-67
2024/01/19 01:12:26;;;;;;;;;5.00;5.00;;;;;18.81;44.73;99863.79;34417;1269;19998;-68
2024/01/19 01:13:13;;;;;;;;;4.00;4.00;;;;;18.80;44.72;99869.48;34432;1253;18650;-67
2024/01/19 01:14:00;;;;;;;;;5.00;5.00;;;;;18.80;44.63;99873.61;34412;1253;20188;-67
2024/01/19 01:14:48;;;;;;;;;4.00;4.00;;;;;18.80;44.74;99877.48;34443;1261;19995;-67
2024/01/19 01:15:35;;;;;;;;;5.00;4.00;;;;;18.80;44.52;99883.59;34434;1269;18638;-68
2024/01/19 01:16:23;;;;;;;;;3.00;3.00;;;;;18.80;44.72;99885.33;34423;1269;20006;-68
2024/01/19 01:17:10;;;;;;;;;5.00;4.00;;;;;18.80;44.36;99884.58;34444;1254;20112;-68
2024/01/19 01:17:58;;;;;;;;;4.00;2.00;;;;;18.80;44.71;99886.53;34430;1254;18633;-68
2024/01/19 01:18:45;;;;;;;;;7.00;5.00;;;;;18.80;44.36;99890.55;34438;1253;19990;-69
2024/01/19 01:19:33;;;;;;;;;4.00;4.00;;;;;18.80;44.26;99888.38;34448;1269;19892;-68
2024/01/19 01:20:20;;;;;;;;;4.00;3.00;;;;;18.80;44.21;99883.77;34450;1269;20080;-68
2024/01/19 01:21:08;;;;;;;;;5.00;4.00;;;;;18.79;44.11;99879.59;34453;1269;20568;-68
2024/01/19 01:21:55;;;;;;;;;5.00;4.00;;;;;18.79;44.10;99883.28;34433;1269;18816;-68
2024/01/19 01:22:43;;;;;;;;;3.00;3.00;;;;;18.79;44.32;99888.71;34439;1269;18629;-68
2024/01/19 01:23:31;;;;;;;;;2.00;2.00;;;;;18.79;44.12;99892.83;34453;1253;21272;-68
2024/01/19 01:24:19;;;;;;;;;4.00;4.00;;;;;18.79;44.22;99893.05;34437;1253;20038;-69
2024/01/19 01:25:06;;;;;;;;;3.00;3.00;;;;;18.79;44.33;99894.57;34409;1269;20000;-68
2024/01/19 01:25:54;;;;;;;;;7.00;5.00;;;;;18.78;44.50;99897.98;34524;1269;21540;-69
2024/01/19 01:26:41;;;;;;;;;4.00;4.00;;;;;18.78;44.00;99899.40;34405;1269;18617;-68
2024/01/19 01:27:28;;;;;;;;;6.00;5.00;;;;;18.79;44.02;99896.90;34486;1269;18545;-68
2024/01/19 01:28:16;;;;;;;;;5.00;5.00;;;;;18.81;43.49;99900.74;34429;1269;20061;-68
2024/01/19 01:29:03;;;;;;;;;5.00;5.00;;;;;18.83;43.36;99902.52;34423;1254;18657;-68
2024/01/19 01:29:51;;;;;;;;;5.00;4.00;;;;;18.86;43.32;99903.33;34445;1269;20217;-68
2024/01/19 01:30:40;;;;;;;;;4.50;4.50;;;;;18.88;43.20;99905.70;34423;1269;18845;-68
2024/01/19 01:31:27;;;;;;;;;2.00;2.00;;;;;18.90;43.24;99907.11;34448;1269;20418;-68
2024/01/19 01:32:15;;;;;;;;;5.00;4.00;;;;;18.92;43.14;99908.78;34483;1269;19951;-67
2024/01/19 01:33:02;;;;;;;;;4.00;4.00;;;;;18.93;43.22;99910.14;34480;1269;18691;-67
2024/01/19 01:33:50;;;;;;;;;3.00;3.00;;;;;18.94;43.13;99908.95;34491;1269;18640;-67
2024/01/19 01:34:37;;;;;;;;;5.00;5.00;;;;;18.95;42.85;99908.66;34463;1269;18682;-68
2024/01/19 01:35:25;;;;;;;;;5.00;4.00;;;;;18.97;43.03;99913.11;34475;1253;19912;-68
2024/01/19 01:36:12;;;;;;;;;7.00;5.00;;;;;18.97;42.94;99916.03;34490;1253;21237;-69
2024/01/19 01:37:00;;;;;;;;;4.00;4.00;;;;;18.99;42.77;99918.90;34501;1269;20055;-68
2024/01/19 01:37:47;;;;;;;;;4.00;4.00;;;;;19.00;42.62;99919.55;34479;1269;21545;-68
2024/01/19 01:38:34;;;;;;;;;5.00;5.00;;;;;18.99;42.82;99922.76;34495;1269;20054;-68
2024/01/19 01:39:22;;;;;;;;;5.00;5.00;;;;;19.01;42.74;99921.61;34474;1269;21691;-68
2024/01/19 01:40:10;;;;;;;;;5.00;5.00;;;;;19.01;42.68;99923.89;34522;1269;18631;-68
2024/01/19 01:40:58;;;;;;;;;7.50;5.00;;;;;19.01;42.84;99927.30;34435;1269;18619;-68
2024/01/19 01:41:46;;;;;;;;;7.00;4.50;;;;;19.00;42.76;99934.47;34462;1269;20178;-68
2024/01/19 01:42:34;;;;;;;;;5.00;5.00;;;;;19.01;42.70;99932.19;34507;1269;18708;-69
2024/01/19 01:43:22;;;;;;;;;4.33;4.00;;;;;19.00;42.86;99934.00;34430;1269;20286;-68
2024/01/19 01:44:09;;;;;;;;;5.00;4.50;;;;;19.01;42.61;99934.73;34534;1269;18624;-69
2024/01/19 01:44:57;;;;;;;;;4.00;4.00;;;;;19.00;42.66;99934.81;34431;1254;18730;-69
2024/01/19 01:45:44;;;;;;;;;4.00;4.00;;;;;18.99;42.85;99932.58;34548;1253;18760;-70
2024/01/19 01:46:31;;;;;;;;;5.00;5.00;;;;;18.99;42.78;99932.58;34422;1269;18619;-69
2024/01/19 01:47:19;;;;;;;;;5.00;5.00;;;;;18.99;42.58;99931.83;34555;1269;18792;-68
2024/01/19 01:48:06;;;;;;;;;5.00;4.50;;;;;19.00;42.58;99930.79;34448;1269;20005;-68
2024/01/19 01:48:54;;;;;;;;;7.00;5.00;;;;;18.98;42.68;99923.30;34481;1269;21176;-69
2024/01/19 01:49:41;;;;;;;;;5.00;4.00;;;;;18.98;42.57;99925.04;34435;1269;19069;-68
2024/01/19 01:50:29;;;;;;;;;3.00;3.00;;;;;18.97;42.71;99925.98;34490;1269;20005;-69
2024/01/19 01:51:16;;;;;;;;;4.00;4.00;;;;;18.95;42.55;99926.14;34410;1269;18500;-68
2024/01/19 01:52:04;;;;;;;;;4.00;4.00;;;;;18.94;42.73;99929.45;34534;1269;19979;-68
2024/01/19 01:52:51;;;;;;;;;4.25;4.25;;;;;18.93;42.45;99926.80;34426;1269;20047;-69
2024/01/19 01:53:38;;;;;;;;;6.00;4.50;;;;;18.93;42.70;99929.79;34520;1260;19002;-69
2024/01/19 01:54:26;;;;;;;;;2.00;2.00;;;;;18.92;42.44;99931.79;34479;1253;18651;-69
2024/01/19 01:55:13;;;;;;;;;7.00;4.00;;;;;18.91;42.55;99931.64;34505;1269;18598;-69
2024/01/19 01:56:01;;;;;;;;;4.00;4.00;;;;;18.90;42.47;99934.90;34478;1253;20118;-69
2024/01/19 01:56:48;;;;;;;;;5.00;4.00;;;;;18.89;42.55;99938.15;34411;1269;20054;-69
2024/01/19 01:57:36;;;;;;;;;4.00;4.00;;;;;18.89;42.47;99933.33;34459;1253;20074;-68
2024/01/19 01:58:23;;;;;;;;;2.67;2.00;;;;;18.89;42.61;99938.15;34417;1254;20174;-68
2024/01/19 01:59:10;;;;;;;;;4.00;2.00;;;;;18.88;42.51;99940.05;34487;1269;18575;-68
2024/01/19 01:59:58;;;;;;;;;4.00;4.00;;;;;18.87;42.51;99938.76;34414;1269;19956;-68
2024/01/19 02:00:45;;;;;;;;;4.00;4.00;;;;;18.87;42.66;99943.98;34486;1269;20068;-68
2024/01/19 02:01:33;;;;;;;;;4.67;4.33;;;;;18.86;42.72;99947.13;34403;1269;20161;-68
2024/01/19 02:02:21;;;;;;;;;4.00;4.00;;;;;18.86;42.90;99947.77;34457;1263;18635;-68
2024/01/19 02:03:08;;;;;;;;;4.33;3.33;;;;;18.85;42.99;99946.64;34436;1254;20077;-68
2024/01/19 02:03:56;;;;;;;;;4.00;4.00;;;;;18.83;42.93;99950.01;34464;1263;19998;-68
2024/01/19 02:04:43;;;;;;;;;4.33;4.33;;;;;18.81;42.96;99946.92;34402;1269;19980;-69
2024/01/19 02:05:31;;;;;;;;;7.00;5.00;;;;;18.80;43.11;99948.66;34465;1254;20127;-69
2024/01/19 02:06:18;;;;;;;;;4.00;4.00;;;;;18.80;43.24;99952.08;34463;1269;19955;-68
2024/01/19 02:07:06;;;;;;;;;5.00;4.00;;;;;18.80;43.31;99948.28;34487;1269;18528;-68
2024/01/19 02:07:53;;;;;;;;;4.00;4.00;;;;;18.80;43.28;99952.14;34413;1253;20139;-69
2024/01/19 02:08:40;;;;;;;;;4.00;4.00;;;;;18.80;43.18;99951.16;34474;1269;19969;-69
2024/01/19 02:09:28;;;;;;;;;5.00;5.00;;;;;18.80;43.29;99949.10;34430;1254;21466;-66
2024/01/19 02:10:16;;;;;;;;;4.00;4.00;;;;;18.80;43.25;99950.95;34484;1269;18616;-67
2024/01/19 02:11:03;;;;;;;;;5.00;5.00;;;;;18.79;43.30;99950.73;34410;1269;19854;-66
2024/01/19 02:11:50;;;;;;;;;2.00;2.00;;;;;18.79;43.40;99950.52;34498;1269;19996;-66
2024/01/19 02:12:38;;;;;;;;;4.00;4.00;;;;;18.80;43.42;99950.84;34426;1253;20097;-67
2024/01/19 02:13:25;;;;;;;;;4.00;4.00;;;;;18.79;43.66;99950.40;34499;1269;21056;-67
2024/01/19 02:14:13;;;;;;;;;2.00;2.00;;;;;18.79;43.56;99949.59;34429;1269;18664;-66
2024/01/19 02:15:00;;;;;;;;;5.00;5.00;;;;;18.80;43.88;99952.79;34517;1269;19908;-66
2024/01/19 02:15:48;;;;;;;;;4.50;4.50;;;;;18.79;43.86;99945.36;34439;1269;18839;-67
2024/01/19 02:16:35;;;;;;;;;4.00;4.00;;;;;18.79;43.81;99946.06;34503;1269;19991;-67
2024/01/19 02:17:23;;;;;;;;;3.00;3.00;;;;;18.79;43.86;99949.38;34455;1253;20142;-68
2024/01/19 02:18:12;;;;;;;;;4.00;3.50;;;;;18.78;43.98;99950.89;34478;1269;18761;-67
2024/01/19 02:18:59;;;;;;;;;4.00;4.00;;;;;18.78;43.88;99951.77;34563;1269;19972;-66
2024/01/19 02:19:46;;;;;;;;;4.00;2.00;;;;;18.78;43.83;99950.40;34423;1269;20336;-66
2024/01/19 02:20:34;;;;;;;;;4.00;4.00;;;;;18.78;43.83;99953.38;34513;1269;20497;-67
2024/01/19 02:21:21;;;;;;;;;4.00;4.00;;;;;18.77;43.50;99956.86;34444;1269;20012;-66
2024/01/19 02:22:09;;;;;;;;;5.67;4.00;;;;;18.77;43.80;99953.88;34498;1269;18977;-67
2024/01/19 02:22:56;;;;;;;;;4.00;4.00;;;;;18.78;43.44;99956.76;34478;1269;19833;-66
2024/01/19 02:23:44;;;;;;;;;4.00;4.00;;;;;18.77;43.53;99954.70;34449;1269;18594;-67
2024/01/19 02:24:31;;;;;;;;;2.00;2.00;;;;;18.76;43.50;99954.05;34463;1269;20017;-66
2024/01/19 02:25:18;;;;;;;;;4.33;4.33;;;;;18.76;43.43;99955.02;34429;1269;18792;-66
2024/01/19 02:26:06;;;;;;;;;4.00;4.00;;;;;18.75;43.81;99954.97;34490;1254;18801;-66
2024/01/19 02:26:55;;;;;;;;;2.00;2.00;;;;;18.75;43.68;99957.14;34420;1269;20003;-67
2024/01/19 02:27:42;;;;;;;;;;;;;;;18.74;43.44;99958.33;34422;1269;21179;-66
2024/01/19 02:28:30;;;;;;;;;2.00;2.00;;;;;18.74;43.45;99959.95;34527;1269;18363;-67
2024/01/19 02:29:19;;;;;;;;;4.00;4.00;;;;;18.74;43.48;99959.41;34409;1269;20382;-67
2024/01/19 02:30:07;;;;;;;;;4.00;4.00;;;;;18.74;43.47;99963.76;34433;1269;20001;-68
2024/01/19 02:30:54;;;;;;;;;2.00;2.00;;;;;18.74;43.43;99965.61;34546;1269;18518;-68
2024/01/19 02:31:42;;;;;;;;;4.00;4.00;;;;;18.74;43.39;99962.08;34433;1269;18662;-69
2024/01/19 02:32:29;;;;;;;;;4.00;4.00;;;;;18.74;43.30;99967.17;34422;1269;20195;-68
2024/01/19 02:33:17;;;;;;;;;4.00;2.00;;;;;18.74;43.30;99970.16;34460;1269;18798;-68
2024/01/19 02:34:04;;;;;;;;;2.67;2.00;;;;;18.74;43.52;99972.92;34569;1269;18645;-68
2024/01/19 02:34:52;;;;;;;;;4.00;4.00;;;;;18.74;43.48;99974.08;34444;1253;20063;-69
2024/01/19 02:35:39;;;;;;;;;4.00;4.00;;;;;18.73;43.73;99974.95;34435;1269;18607;-68
2024/01/19 02:36:26;;;;;;;;;4.00;4.00;;;;;18.73;43.42;99979.45;34473;1269;18688;-68
2024/01/19 02:37:14;;;;;;;;;4.00;4.00;;;;;18.74;43.26;99977.39;34407;1269;20135;-69
2024/01/19 02:38:02;;;;;;;;;4.00;4.00;;;;;18.75;42.88;99977.77;34464;1253;20055;-68
2024/01/19 02:38:49;;;;;;;;;4.00;2.00;;;;;18.78;42.50;99978.19;34419;1269;18580;-68
2024/01/19 02:39:36;;;;;;;;;5.50;4.00;;;;;18.80;42.43;99980.84;34436;1254;20238;-68
2024/01/19 02:40:24;;;;;;;;;4.00;4.00;;;;;18.82;42.58;99981.10;34435;1269;18702;-68
2024/01/19 02:41:11;;;;;;;;;4.00;4.00;;;;;18.84;42.49;99978.02;34467;1269;20264;-69
2024/01/19 02:41:59;;;;;;;;;4.00;4.00;;;;;18.86;42.18;99975.17;34431;1269;18660;-68
2024/01/19 02:42:46;;;;;;;;;4.00;4.00;;;;;18.88;42.34;99977.29;34467;1269;18593;-68
2024/01/19 02:43:33;;;;;;;;;6.00;4.50;;;;;18.88;42.01;99974.80;34445;1269;18980;-68
2024/01/19 02:44:21;;;;;;;;;4.00;4.00;;;;;18.89;42.06;99978.31;34483;1269;20167;-69
2024/01/19 02:45:08;;;;;;;;;4.00;4.00;;;;;18.90;42.03;99975.44;34436;1269;20002;-68
2024/01/19 02:45:56;;;;;;;;;5.00;5.00;;;;;18.91;42.11;99975.60;34499;1269;18942;-68
2024/01/19 02:46:43;;;;;;;;;4.00;4.00;;;;;18.93;41.94;99974.67;34422;1269;19914;-69
2024/01/19 02:47:31;;;;;;;;;3.00;3.00;;;;;18.95;41.82;99973.90;34534;1253;20062;-68
2024/01/19 02:48:18;;;;;;;;;4.00;4.00;;;;;18.95;42.01;99972.98;34411;1269;18606;-68
2024/01/19 02:49:06;;;;;;;;;4.00;4.00;;;;;18.94;41.94;99974.34;34504;1269;20376;-68
2024/01/19 02:49:54;;;;;;;;;4.00;4.00;;;;;18.94;41.99;99977.39;34435;1269;19970;-68
2024/01/19 02:50:41;;;;;;;;;2.00;2.00;;;;;18.94;41.99;99974.55;34499;1253;18642;-68
2024/01/19 02:51:28;;;;;;;;;4.00;4.00;;;;;18.93;41.69;99980.85;34444;1253;20125;-68
2024/01/19 02:52:16;;;;;;;;;5.50;3.50;;;;;18.93;41.89;99981.13;34498;1269;18688;-68
2024/01/19 02:53:03;;;;;;;;;4.50;4.00;;;;;18.91;41.73;99979.89;34441;1269;19892;-69
2024/01/19 02:53:51;;;;;;;;;4.00;4.00;;;;;18.91;41.91;99981.73;34536;1260;18648;-69
2024/01/19 02:54:38;;;;;;;;;2.00;2.00;;;;;18.92;41.74;99982.65;34485;1253;18592;-69
2024/01/19 02:55:25;;;;;;;;;4.00;3.00;;;;;18.91;41.50;99983.25;34563;1253;20048;-68
2024/01/19 02:56:13;;;;;;;;;4.00;4.00;;;;;18.89;41.71;99983.58;34484;1253;19974;-68
2024/01/19 02:57:00;;;;;;;;;2.00;2.00;;;;;18.89;41.53;99983.31;34569;1269;18803;-68
2024/01/19 02:57:48;;;;;;;;;4.00;4.00;;;;;18.88;41.59;99982.83;34465;1253;20595;-68
2024/01/19 02:58:35;;;;;;;;;4.00;4.00;;;;;18.89;41.64;99985.27;34465;1269;19996;-68
2024/01/19 02:59:23;;;;;;;;;4.00;4.00;;;;;18.88;41.64;99987.33;34479;1269;20018;-68
2024/01/19 03:00:10;;;;;;;;;5.00;4.00;;;;;18.88;41.51;99988.85;34514;1253;20087;-68
2024/01/19 03:00:59;;;;;;;;;5.00;5.00;;;;;18.87;41.70;99990.38;34478;1268;18967;-68
2024/01/19 03:01:46;;;;;;;;;5.00;5.00;;;;;18.86;41.69;99987.83;34535;1253;18652;-68
2024/01/19 03:02:34;;;;;;;;;4.00;4.00;;;;;18.85;41.49;99991.67;34528;1268;18926;-68
2024/01/19 03:03:21;;;;;;;;;5.00;5.00;;;;;18.84;41.74;99992.81;34535;1269;18650;-68
2024/01/19 03:04:09;;;;;;;;;5.00;5.00;;;;;18.83;41.59;99991.20;34500;1268;18869;-68
2024/01/19 03:04:56;;;;;;;;;2.00;2.00;;;;;18.82;41.64;99989.95;34555;1269;20324;-69
2024/01/19 03:05:43;;;;;;;;;4.50;4.50;;;;;18.82;41.65;99993.04;34510;1260;18602;-68
2024/01/19 03:06:31;;;;;;;;;4.00;4.00;;;;;18.81;41.80;99992.67;34559;1253;20320;-69
2024/01/19 03:07:18;;;;;;;;;5.00;5.00;;;;;18.81;41.92;99993.10;34489;1268;18608;-69
2024/01/19 03:08:06;;;;;;;;;4.50;4.00;;;;;18.80;41.86;99996.15;34526;1253;20061;-68
2024/01/19 03:08:53;;;;;;;;;4.00;4.00;;;;;18.79;41.96;99995.06;34458;1269;18660;-69
2024/01/19 03:09:41;;;;;;;;;4.00;4.00;;;;;18.79;42.04;99995.98;34460;1269;20006;-68
2024/01/19 03:10:28;;;;;;;;;4.00;4.00;;;;;18.76;41.93;99996.48;34478;1269;18585;-68
2024/01/19 03:11:15;;;;;;;;;4.00;2.00;;;;;18.75;42.23;99993.65;34481;1269;18611;-69
2024/01/19 03:12:03;;;;;;;;;5.00;4.67;;;;;18.75;42.13;99994.73;34467;1260;18635;-69
2024/01/19 03:12:50;;;;;;;;;2.00;2.00;;;;;18.76;42.10;99996.26;34498;1269;18788;-68
2024/01/19 03:13:38;;;;;;;;;2.00;2.00;;;;;18.76;42.39;99996.80;34474;1269;19969;-68
2024/01/19 03:14:25;;;;;;;;;4.00;4.00;;;;;18.75;42.49;100000.17;34495;1268;18618;-68
2024/01/19 03:15:12;;;;;;;;;5.00;5.00;;;;;18.75;42.52;100001.69;34499;1268;20009;-68
2024/01/19 03:16:00;;;;;;;;;4.00;4.00;;;;;18.75;42.55;100000.16;34513;1269;20012;-68
2024/01/19 03:16:47;;;;;;;;;4.00;4.00;;;;;18.75;42.71;100002.39;34483;1253;20033;-68
2024/01/19 03:17:35;;;;;;;;;4.00;4.00;;;;;18.75;42.97;100002.94;34522;1268;18777;-69
2024/01/19 03:18:22;;;;;;;;;4.00;4.00;;;;;18.74;42.89;100002.67;34493;1268;18572;-69
2024/01/19 03:19:10;;;;;;;;;5.00;5.00;;;;;18.74;42.88;100006.84;34538;1252;20312;-69
2024/01/19 03:19:57;;;;;;;;;2.67;2.00;;;;;18.74;43.21;100008.85;34515;1268;18625;-68
2024/01/19 03:20:44;;;;;;;;;5.00;5.00;;;;;18.74;43.13;100004.52;34530;1268;20131;-68
2024/01/19 03:21:32;;;;;;;;;3.00;3.00;;;;;18.73;42.99;100007.70;34547;1253;18617;-68
2024/01/19 03:22:19;;;;;;;;;2.00;2.00;;;;;18.74;43.05;100009.83;34556;1269;19970;-68
2024/01/19 03:23:07;;;;;;;;;4.50;4.00;;;;;18.73;43.03;100010.80;34544;1268;18594;-68
2024/01/19 03:23:55;;;;;;;;;4.00;4.00;;;;;18.74;43.11;100010.59;34557;1253;20039;-68
2024/01/19 03:24:42;;;;;;;;;4.00;2.00;;;;;18.73;42.86;100008.47;34500;1268;20182;-68
2024/01/19 03:25:29;;;;;;;;;5.00;5.00;;;;;18.73;43.09;100014.77;34536;1253;20405;-68
2024/01/19 03:26:17;;;;;;;;;4.00;4.00;;;;;18.73;43.12;100016.45;34530;1268;18532;-68
2024/01/19 03:27:04;;;;;;;;;4.00;2.50;;;;;18.74;42.92;100016.72;34569;1268;18615;-69
2024/01/19 03:27:52;;;;;;;;;4.00;4.00;;;;;18.73;42.76;100015.58;34526;1260;18662;-69
2024/01/19 03:28:39;;;;;;;;;5.00;4.00;;;;;18.73;43.10;100016.88;34583;1260;20251;-69
2024/01/19 03:29:26;;;;;;;;;4.00;4.00;;;;;18.73;43.03;100016.56;34469;1260;18835;-68
2024/01/19 03:30:14;;;;;;;;;5.00;4.00;;;;;18.73;42.95;100018.35;34603;1260;18635;-67
2024/01/19 03:31:01;;;;;;;;;3.33;3.33;;;;;18.72;43.08;100018.73;34474;1269;20378;-67
2024/01/19 03:31:49;;;;;;;;;4.00;4.00;;;;;18.71;43.16;100020.95;34566;1260;19193;-68
2024/01/19 03:32:36;;;;;;;;;3.00;3.00;;;;;18.71;42.82;100028.11;34483;1269;19935;-67
2024/01/19 03:33:24;;;;;;;;;5.00;5.00;;;;;18.71;42.99;100020.85;34531;1268;20549;-67
2024/01/19 03:34:11;;;;;;;;;4.00;4.00;;;;;18.72;43.00;100024.31;34495;1268;18605;-67
2024/01/19 03:34:59;;;;;;;;;2.00;2.00;;;;;18.72;42.82;100022.69;34530;1253;20045;-68
2024/01/19 03:35:46;;;;;;;;;4.00;4.00;;;;;18.71;42.86;100026.23;34502;1268;18659;-67
2024/01/19 03:36:35;;;;;;;;;4.00;4.00;;;;;18.71;42.83;100026.98;34513;1253;20247;-69
2024/01/19 03:37:22;;;;;;;;;2.00;2.00;;;;;18.71;42.75;100029.48;34478;1269;18615;-68
2024/01/19 03:38:10;;;;;;;;;2.00;2.00;;;;;18.71;43.04;100029.85;34559;1268;19946;-68
2024/01/19 03:38:57;;;;;;;;;4.00;4.00;;;;;18.70;43.03;100029.63;34511;1268;19940;-68
2024/01/19 03:39:45;;;;;;;;;4.00;4.00;;;;;18.69;42.99;100029.75;34543;1269;18698;-68
2024/01/19 03:40:32;;;;;;;;;4.00;4.00;;;;;18.70;42.67;100027.46;34474;1269;19554;-67
2024/01/19 03:41:20;;;;;;;;;8.00;5.00;;;;;18.71;42.26;100028.98;34566;1268;19986;-68
2024/01/19 03:42:07;;;;;;;;;4.00;4.00;;;;;18.72;41.88;100029.85;34469;1269;19914;-69
2024/01/19 03:42:54;;;;;;;;;4.00;4.00;;;;;18.73;41.79;100031.85;34578;1253;20009;-68
2024/01/19 03:43:42;;;;;;;;;5.00;5.00;;;;;18.75;41.56;100032.34;34489;1268;18636;-68